Time;durP1;ratioP1;P1;durP2;ratioP2;P2;SDS_P1;SDS_P2;PMS_P1;PMS_P2;Temp;Humidity;BMP_temperature;BMP_pressure;BME280_temperature;BME280_humidity;BME280_pressure;Samples;Min_cycle;Max_cycle;Signal;HPM_P1;HPM_P2
2021/11/11 00:00:29;;;;;;;51.40;28.35;;;;;;;;;;761978;180;2190100;-64
2021/11/11 00:02:54;;;;;;;46.45;27.90;;;;;;;;;;771882;180;939264;-61
2021/11/11 00:05:20;;;;;;;44.40;27.20;;;;;;;;;;776055;180;919195;-63
2021/11/11 00:07:45;;;;;;;44.30;25.60;;;;;;;;;;763875;180;918456;-63
2021/11/11 00:10:11;;;;;;;50.77;29.10;;;;;;;;;;768760;180;918617;-63
2021/11/11 00:12:37;;;;;;;54.13;31.97;;;;;;;;;;776972;180;916312;-63
2021/11/11 00:15:03;;;;;;;48.00;28.07;;;;;;;;;;769019;180;920622;-63
2021/11/11 00:17:29;;;;;;;45.20;26.07;;;;;;;;;;765161;180;916773;-63
2021/11/11 00:19:55;;;;;;;50.30;27.70;;;;;;;;;;770392;180;915757;-63
2021/11/11 00:22:21;;;;;;;43.73;25.73;;;;;;;;;;771602;180;915517;-65
2021/11/11 00:24:47;;;;;;;42.67;25.30;;;;;;;;;;768930;179;918893;-63
2021/11/11 00:27:12;;;;;;;46.90;27.30;;;;;;;;;;772498;180;918608;-63
2021/11/11 00:29:39;;;;;;;48.53;26.67;;;;;;;;;;771957;181;918991;-66
2021/11/11 00:32:05;;;;;;;46.77;27.20;;;;;;;;;;766196;181;919437;-62
2021/11/11 00:34:31;;;;;;;50.57;30.40;;;;;;;;;;773055;180;921216;-63
2021/11/11 00:36:56;;;;;;;56.43;29.37;;;;;;;;;;773580;180;919956;-63
2021/11/11 00:39:22;;;;;;;53.97;29.40;;;;;;;;;;766916;180;918883;-63
2021/11/11 00:41:48;;;;;;;52.37;30.03;;;;;;;;;;763829;180;919571;-63
2021/11/11 00:44:14;;;;;;;52.63;29.40;;;;;;;;;;760986;182;918614;-62
2021/11/11 00:46:40;;;;;;;54.83;31.37;;;;;;;;;;769704;181;919255;-63
2021/11/11 00:49:07;;;;;;;53.03;29.70;;;;;;;;;;772027;180;918316;-64
2021/11/11 00:51:32;;;;;;;56.13;31.20;;;;;;;;;;771947;179;918582;-63
2021/11/11 00:53:58;;;;;;;63.63;33.60;;;;;;;;;;774959;180;918926;-62
2021/11/11 00:56:24;;;;;;;65.67;31.57;;;;;;;;;;765892;180;919420;-63
2021/11/11 00:58:50;;;;;;;52.73;28.90;;;;;;;;;;768138;180;1022102;-62
2021/11/11 01:01:16;;;;;;;58.63;30.47;;;;;;;;;;772475;180;919113;-62
2021/11/11 01:03:42;;;;;;;55.93;31.77;;;;;;;;;;769818;180;920303;-63
2021/11/11 01:06:07;;;;;;;50.00;29.97;;;;;;;;;;770556;179;919779;-63
2021/11/11 01:08:33;;;;;;;53.30;28.58;;;;;;;;;;769105;179;1016163;-62
2021/11/11 01:11:00;;;;;;;49.20;30.47;;;;;;;;;;772344;181;928031;-63
2021/11/11 01:13:26;;;;;;;51.60;28.97;;;;;;;;;;760687;181;1016353;-62
2021/11/11 01:15:52;;;;;;;46.97;27.37;;;;;;;;;;764959;181;915746;-63
2021/11/11 01:18:18;;;;;;;50.87;28.73;;;;;;;;;;771304;180;919269;-62
2021/11/11 01:20:43;;;;;;;45.23;26.50;;;;;;;;;;764501;180;919804;-63
2021/11/11 01:23:09;;;;;;;49.40;28.07;;;;;;;;;;766955;180;916750;-62
2021/11/11 01:25:35;;;;;;;47.40;28.70;;;;;;;;;;774387;180;915836;-62
2021/11/11 01:28:01;;;;;;;47.57;26.83;;;;;;;;;;771269;179;911791;-63
2021/11/11 01:30:27;;;;;;;46.70;27.87;;;;;;;;;;769583;181;912631;-63
2021/11/11 01:32:53;;;;;;;47.97;28.20;;;;;;;;;;768641;180;913303;-62
2021/11/11 01:35:18;;;;;;;49.38;27.75;;;;;;;;;;776083;178;914040;-62
2021/11/11 01:37:44;;;;;;;48.23;26.63;;;;;;;;;;766595;180;914402;-62
2021/11/11 01:40:10;;;;;;;40.63;25.23;;;;;;;;;;766559;180;916176;-62
2021/11/11 01:42:46;;;;;;;44.40;24.37;;;;;;;;;;774644;180;914531;-63
2021/11/11 01:45:12;;;;;;;42.03;24.50;;;;;;;;;;771031;180;918539;-62
2021/11/11 01:47:38;;;;;;;41.47;25.40;;;;;;;;;;770844;180;915773;-63
2021/11/11 01:50:04;;;;;;;36.53;23.67;;;;;;;;;;768534;180;908671;-63
2021/11/11 01:52:30;;;;;;;38.78;24.00;;;;;;;;;;773455;179;909289;-63
2021/11/11 01:54:56;;;;;;;42.43;22.10;;;;;;;;;;770429;180;907322;-63
2021/11/11 01:57:25;;;;;;;36.13;21.87;;;;;;;;;;768134;179;919169;-62
2021/11/11 01:59:48;;;;;;;36.33;23.80;;;;;;;;;;772465;180;919374;-63
2021/11/11 02:02:13;;;;;;;34.13;22.20;;;;;;;;;;763850;180;919922;-63
2021/11/11 02:04:39;;;;;;;33.92;22.80;;;;;;;;;;765706;180;919403;-63
2021/11/11 02:07:05;;;;;;;40.63;21.53;;;;;;;;;;772290;179;918805;-63
2021/11/11 02:09:31;;;;;;;39.63;22.90;;;;;;;;;;773723;180;911281;-63
2021/11/11 02:11:57;;;;;;;39.80;23.93;;;;;;;;;;767737;180;919604;-63
2021/11/11 02:14:23;;;;;;;38.47;24.50;;;;;;;;;;768852;180;915921;-64
2021/11/11 02:16:49;;;;;;;34.85;20.92;;;;;;;;;;778685;179;1017332;-63
2021/11/11 02:19:15;;;;;;;48.73;27.67;;;;;;;;;;768327;180;1017128;-63
2021/11/11 02:21:43;;;;;;;40.20;25.37;;;;;;;;;;769930;180;886467;-63
2021/11/11 02:24:06;;;;;;;36.30;23.13;;;;;;;;;;776374;180;919450;-63
2021/11/11 02:26:32;;;;;;;37.67;23.50;;;;;;;;;;768740;180;915164;-63
2021/11/11 02:28:59;;;;;;;40.97;24.45;;;;;;;;;;765291;181;920007;-64
2021/11/11 02:31:24;;;;;;;43.53;24.40;;;;;;;;;;776507;180;915660;-63
2021/11/11 02:33:52;;;;;;;41.27;24.07;;;;;;;;;;771077;180;917156;-64
2021/11/11 02:36:17;;;;;;;43.53;26.77;;;;;;;;;;771913;180;916083;-62
2021/11/11 02:38:43;;;;;;;41.70;24.33;;;;;;;;;;770740;180;918512;-62
2021/11/11 02:41:09;;;;;;;41.63;25.30;;;;;;;;;;771490;180;914633;-64
2021/11/11 02:43:35;;;;;;;36.50;23.37;;;;;;;;;;766743;180;972875;-64
2021/11/11 02:46:01;;;;;;;40.67;24.70;;;;;;;;;;768310;180;919419;-63
2021/11/11 02:48:27;;;;;;;48.93;26.63;;;;;;;;;;775840;180;914842;-63
2021/11/11 02:50:52;;;;;;;45.07;24.93;;;;;;;;;;766456;180;915630;-64
2021/11/11 02:53:18;;;;;;;52.83;27.13;;;;;;;;;;770900;180;917770;-62
2021/11/11 02:55:44;;;;;;;44.80;24.47;;;;;;;;;;775649;180;916543;-64
2021/11/11 02:58:10;;;;;;;43.23;23.53;;;;;;;;;;765912;180;1852289;-63
2021/11/11 03:00:39;;;;;;;45.00;25.03;;;;;;;;;;757661;183;914438;-62
2021/11/11 03:03:05;;;;;;;45.37;26.67;;;;;;;;;;772002;180;919978;-63
2021/11/11 03:05:30;;;;;;;47.17;27.90;;;;;;;;;;772347;181;918683;-64
2021/11/11 03:07:56;;;;;;;48.17;25.80;;;;;;;;;;767430;180;918974;-63
2021/11/11 03:10:22;;;;;;;44.50;26.63;;;;;;;;;;766585;180;921010;-65
2021/11/11 03:12:48;;;;;;;40.27;24.73;;;;;;;;;;771954;179;918732;-63
2021/11/11 03:15:15;;;;;;;40.25;24.55;;;;;;;;;;771123;180;920090;-62
2021/11/11 03:17:41;;;;;;;44.40;25.57;;;;;;;;;;771457;180;920612;-64
2021/11/11 03:20:07;;;;;;;46.13;24.77;;;;;;;;;;774779;177;919447;-62
2021/11/11 03:22:33;;;;;;;42.30;25.20;;;;;;;;;;769450;179;1020566;-64
2021/11/11 03:24:59;;;;;;;51.73;29.37;;;;;;;;;;766114;180;921048;-65
2021/11/11 03:27:25;;;;;;;44.00;25.07;;;;;;;;;;771307;180;919775;-63
2021/11/11 03:29:51;;;;;;;41.80;25.83;;;;;;;;;;776870;179;919334;-63
2021/11/11 03:32:17;;;;;;;45.83;25.80;;;;;;;;;;774613;180;918559;-64
2021/11/11 03:34:43;;;;;;;37.63;23.33;;;;;;;;;;771829;180;919418;-66
2021/11/11 03:37:09;;;;;;;43.83;25.20;;;;;;;;;;775822;180;919194;-64
2021/11/11 03:39:35;;;;;;;42.97;25.20;;;;;;;;;;771131;180;920636;-65
2021/11/11 03:42:02;;;;;;;40.30;24.57;;;;;;;;;;768029;180;1021147;-65
2021/11/11 03:44:28;;;;;;;49.50;24.40;;;;;;;;;;772906;180;918968;-63
2021/11/11 03:46:54;;;;;;;41.47;25.47;;;;;;;;;;768784;180;919284;-64
2021/11/11 03:49:20;;;;;;;42.93;26.50;;;;;;;;;;767943;180;919683;-64
2021/11/11 03:51:46;;;;;;;45.13;25.40;;;;;;;;;;765865;180;918967;-64
2021/11/11 03:54:13;;;;;;;43.72;24.23;;;;;;;;;;766939;182;919088;-65
2021/11/11 03:56:40;;;;;;;40.10;24.10;;;;;;;;;;762619;182;920448;-65
2021/11/11 03:59:04;;;;;;;41.23;23.07;;;;;;;;;;761648;184;919074;-64
2021/11/11 04:01:29;;;;;;;41.67;25.03;;;;;;;;;;759902;184;919900;-63
2021/11/11 04:03:55;;;;;;;42.17;24.43;;;;;;;;;;770283;180;915513;-65
2021/11/11 04:06:21;;;;;;;42.25;24.08;;;;;;;;;;754943;180;2235866;-64
2021/11/11 04:08:47;;;;;;;36.33;22.90;;;;;;;;;;770928;180;915638;-64
2021/11/11 04:11:12;;;;;;;37.43;22.20;;;;;;;;;;768190;180;919484;-63
2021/11/11 04:13:38;;;;;;;40.17;22.40;;;;;;;;;;766073;179;918057;-63
2021/11/11 04:16:04;;;;;;;40.50;23.57;;;;;;;;;;768315;180;919631;-64
2021/11/11 04:18:30;;;;;;;40.40;22.90;;;;;;;;;;767213;181;920571;-65
2021/11/11 04:20:56;;;;;;;45.70;21.33;;;;;;;;;;767487;180;1018963;-64
2021/11/11 04:23:23;;;;;;;39.60;23.90;;;;;;;;;;765814;180;919093;-64
2021/11/11 04:25:57;;;;;;;38.87;22.40;;;;;;;;;;775910;180;919132;-64
2021/11/11 04:28:28;;;;;;;41.17;24.33;;;;;;;;;;771083;180;919677;-63
2021/11/11 04:30:57;;;;;;;40.40;23.07;;;;;;;;;;764782;180;1036812;-64
2021/11/11 04:33:18;;;;;;;52.17;24.53;;;;;;;;;;771149;179;916551;-64
2021/11/11 04:35:48;;;;;;;43.33;22.50;;;;;;;;;;779725;179;916389;-64
2021/11/11 04:41:03;;;;;;;52.60;25.20;;;;;;;;;;770287;179;919035;-65
2021/11/11 04:43:24;;;;;;;47.23;25.63;;;;;;;;;;760133;181;1933564;-64
2021/11/11 04:45:57;;;;;;;62.03;27.60;;;;;;;;;;772456;180;915847;-64
2021/11/11 05:01:17;;;;;;;41.97;24.90;;;;;;;;;;774195;180;1018991;-64
2021/11/11 05:03:38;;;;;;;52.77;26.73;;;;;;;;;;772357;180;918763;-63
2021/11/11 05:06:02;;;;;;;49.37;26.50;;;;;;;;;;769725;180;906565;-64
2021/11/11 05:08:28;;;;;;;48.37;24.73;;;;;;;;;;765848;180;918678;-64
2021/11/11 05:10:54;;;;;;;51.07;25.07;;;;;;;;;;771887;181;931027;-68
2021/11/11 05:13:20;;;;;;;52.45;26.17;;;;;;;;;;768838;180;1015841;-65
2021/11/11 05:15:46;;;;;;;45.20;23.27;;;;;;;;;;771543;180;920592;-65
2021/11/11 05:18:12;;;;;;;44.83;23.43;;;;;;;;;;775595;180;633316;-65
2021/11/11 05:20:37;;;;;;;53.53;26.20;;;;;;;;;;770728;180;763517;-63
2021/11/11 05:23:03;;;;;;;51.10;24.90;;;;;;;;;;769733;180;919046;-64
2021/11/11 05:25:29;;;;;;;49.45;26.77;;;;;;;;;;772098;180;919863;-63
2021/11/11 05:27:55;;;;;;;47.13;23.33;;;;;;;;;;778183;180;627293;-64
2021/11/11 05:30:21;;;;;;;47.47;24.53;;;;;;;;;;772821;179;840861;-65
2021/11/11 05:32:47;;;;;;;62.50;30.00;;;;;;;;;;771995;180;917959;-64
2021/11/11 05:35:12;;;;;;;49.70;27.17;;;;;;;;;;775205;180;918106;-63
2021/11/11 05:37:38;;;;;;;57.80;28.10;;;;;;;;;;772096;180;919283;-65
2021/11/11 05:40:05;;;;;;;59.67;28.20;;;;;;;;;;770908;180;951526;-64
2021/11/11 05:42:31;;;;;;;51.67;25.97;;;;;;;;;;767989;181;1019587;-65
2021/11/11 05:44:57;;;;;;;50.03;25.83;;;;;;;;;;772387;180;617921;-64
2021/11/11 05:47:22;;;;;;;48.80;24.17;;;;;;;;;;767242;180;921566;-64
2021/11/11 05:49:48;;;;;;;46.50;25.50;;;;;;;;;;768676;180;921303;-64
2021/11/11 05:52:14;;;;;;;47.40;24.03;;;;;;;;;;770920;180;920575;-63
2021/11/11 05:54:40;;;;;;;57.70;26.50;;;;;;;;;;765005;180;915536;-63
2021/11/11 05:57:07;;;;;;;50.45;25.08;;;;;;;;;;770026;180;916317;-63
2021/11/11 05:59:33;;;;;;;46.27;24.97;;;;;;;;;;776197;180;916633;-65
2021/11/11 06:01:59;;;;;;;58.57;25.00;;;;;;;;;;771359;179;922366;-65
2021/11/11 06:04:24;;;;;;;49.97;24.97;;;;;;;;;;768548;181;920658;-65
2021/11/11 06:06:50;;;;;;;47.63;26.40;;;;;;;;;;771421;181;937513;-64
2021/11/11 06:09:16;;;;;;;43.50;24.00;;;;;;;;;;766187;180;921023;-64
2021/11/11 06:11:42;;;;;;;44.78;23.65;;;;;;;;;;769692;180;1021303;-65
2021/11/11 06:14:08;;;;;;;47.85;25.10;;;;;;;;;;771156;180;918899;-62
2021/11/11 06:16:34;;;;;;;42.00;23.63;;;;;;;;;;770281;180;919265;-63
2021/11/11 06:19:00;;;;;;;40.27;22.20;;;;;;;;;;770695;180;920368;-65
2021/11/11 06:21:26;;;;;;;47.40;23.70;;;;;;;;;;775620;180;627638;-65
2021/11/11 06:23:51;;;;;;;51.13;24.80;;;;;;;;;;775248;180;632653;-65
2021/11/11 06:26:18;;;;;;;49.70;25.07;;;;;;;;;;770804;180;661886;-65
2021/11/11 06:28:44;;;;;;;48.60;24.70;;;;;;;;;;770135;181;623653;-64
2021/11/11 06:31:10;;;;;;;43.83;23.90;;;;;;;;;;778565;180;628360;-64
2021/11/11 06:33:36;;;;;;;46.57;24.43;;;;;;;;;;777033;179;613554;-64
2021/11/11 06:36:01;;;;;;;46.80;24.43;;;;;;;;;;780396;179;626352;-65
2021/11/11 06:38:28;;;;;;;46.95;26.15;;;;;;;;;;779130;180;628028;-65
2021/11/11 06:40:54;;;;;;;54.90;26.70;;;;;;;;;;771023;182;620681;-64
2021/11/11 06:43:20;;;;;;;56.13;27.37;;;;;;;;;;774815;180;617405;-64
2021/11/11 06:45:46;;;;;;;57.47;27.07;;;;;;;;;;773396;180;652749;-65
2021/11/11 06:48:12;;;;;;;57.67;27.03;;;;;;;;;;779270;180;609072;-64
2021/11/11 06:50:37;;;;;;;52.20;26.77;;;;;;;;;;772932;181;618944;-64
2021/11/11 06:53:03;;;;;;;59.00;28.47;;;;;;;;;;774688;180;628600;-64
2021/11/11 06:55:29;;;;;;;62.57;26.77;;;;;;;;;;780240;179;660150;-64
2021/11/11 06:57:55;;;;;;;53.87;28.63;;;;;;;;;;769734;179;626789;-64
2021/11/11 07:00:21;;;;;;;60.12;28.40;;;;;;;;;;768538;180;917451;-65
2021/11/11 07:02:46;;;;;;;51.83;29.17;;;;;;;;;;778309;180;636274;-65
2021/11/11 07:05:12;;;;;;;71.60;31.33;;;;;;;;;;777734;179;725051;-64
2021/11/11 07:07:39;;;;;;;82.20;35.10;;;;;;;;;;776999;180;623639;-64
2021/11/11 07:10:05;;;;;;;84.87;31.67;;;;;;;;;;774252;179;919397;-65
2021/11/11 07:12:30;;;;;;;69.03;32.70;;;;;;;;;;780449;180;639280;-64
2021/11/11 07:14:56;;;;;;;68.03;32.37;;;;;;;;;;778194;179;615427;-64
2021/11/11 07:17:22;;;;;;;60.90;30.13;;;;;;;;;;779248;179;690263;-64
2021/11/11 07:19:48;;;;;;;72.30;30.90;;;;;;;;;;776120;180;918465;-63
2021/11/11 07:22:14;;;;;;;63.37;28.67;;;;;;;;;;764907;179;918815;-63
2021/11/11 07:24:40;;;;;;;61.20;29.70;;;;;;;;;;763846;179;919669;-64
2021/11/11 07:27:06;;;;;;;49.53;24.53;;;;;;;;;;772541;181;918595;-64
2021/11/11 07:29:31;;;;;;;44.23;25.67;;;;;;;;;;767618;180;929228;-63
2021/11/11 07:31:57;;;;;;;45.00;22.33;;;;;;;;;;765441;181;919421;-63
2021/11/11 07:34:23;;;;;;;40.00;20.97;;;;;;;;;;767902;180;920122;-63
2021/11/11 07:36:49;;;;;;;38.70;21.23;;;;;;;;;;768657;181;919166;-64
2021/11/11 07:39:15;;;;;;;40.73;21.10;;;;;;;;;;764136;180;963609;-63
2021/11/11 07:41:43;;;;;;;40.77;21.50;;;;;;;;;;765836;180;919343;-64
2021/11/11 07:44:06;;;;;;;34.50;19.33;;;;;;;;;;775919;180;919077;-64
2021/11/11 07:46:34;;;;;;;39.40;21.10;;;;;;;;;;764309;180;919206;-64
2021/11/11 07:48:58;;;;;;;36.57;19.97;;;;;;;;;;772617;180;918702;-64
2021/11/11 07:51:24;;;;;;;31.20;18.20;;;;;;;;;;773345;180;640878;-63
2021/11/11 07:53:50;;;;;;;33.57;20.03;;;;;;;;;;773524;180;919264;-65
2021/11/11 07:56:16;;;;;;;36.53;21.10;;;;;;;;;;773689;180;917301;-63
2021/11/11 07:58:42;;;;;;;36.20;19.30;;;;;;;;;;767060;181;619036;-64
2021/11/11 08:01:08;;;;;;;36.40;18.60;;;;;;;;;;772650;182;610906;-65
2021/11/11 08:03:34;;;;;;;32.50;17.73;;;;;;;;;;771491;180;628841;-64
2021/11/11 08:06:00;;;;;;;34.67;19.07;;;;;;;;;;769032;180;924005;-63
2021/11/11 08:08:27;;;;;;;30.60;18.67;;;;;;;;;;774030;180;814045;-63
2021/11/11 08:10:52;;;;;;;29.20;17.00;;;;;;;;;;769288;180;919060;-63
2021/11/11 08:13:18;;;;;;;24.87;14.80;;;;;;;;;;765715;179;921826;-64
2021/11/11 08:15:44;;;;;;;29.60;17.83;;;;;;;;;;773160;180;920223;-63
2021/11/11 08:18:10;;;;;;;27.43;16.83;;;;;;;;;;768820;180;1038761;-64
2021/11/11 08:20:36;;;;;;;28.10;15.40;;;;;;;;;;767792;180;922076;-63
2021/11/11 08:23:02;;;;;;;28.67;18.40;;;;;;;;;;770855;180;1019465;-62
2021/11/11 08:25:28;;;;;;;28.00;15.00;;;;;;;;;;773799;179;914483;-63
2021/11/11 08:27:53;;;;;;;26.03;14.77;;;;;;;;;;760471;182;915864;-63
2021/11/11 08:30:19;;;;;;;21.87;13.77;;;;;;;;;;765426;180;1119754;-62
2021/11/11 08:32:45;;;;;;;22.60;13.63;;;;;;;;;;772217;180;920208;-64
2021/11/11 08:35:11;;;;;;;25.30;16.63;;;;;;;;;;769471;180;921009;-64
2021/11/11 08:37:37;;;;;;;23.77;15.47;;;;;;;;;;772122;180;918731;-63
2021/11/11 08:40:03;;;;;;;26.77;15.17;;;;;;;;;;776537;180;919549;-63
2021/11/11 08:42:29;;;;;;;27.02;16.23;;;;;;;;;;770688;180;1020246;-64
2021/11/11 08:44:55;;;;;;;28.50;14.73;;;;;;;;;;764599;181;919570;-63
2021/11/11 08:47:22;;;;;;;25.15;14.20;;;;;;;;;;773199;180;919276;-62
2021/11/11 08:49:48;;;;;;;24.13;16.00;;;;;;;;;;770881;180;918659;-63
2021/11/11 08:52:13;;;;;;;26.40;15.53;;;;;;;;;;756212;180;919205;-63
2021/11/11 08:54:39;;;;;;;18.65;13.05;;;;;;;;;;772872;180;921969;-64
2021/11/11 08:57:05;;;;;;;26.47;16.03;;;;;;;;;;771460;181;919149;-63
2021/11/11 08:59:31;;;;;;;25.73;16.47;;;;;;;;;;765220;180;917864;-63
2021/11/11 09:01:57;;;;;;;25.20;16.57;;;;;;;;;;766854;180;918311;-63
2021/11/11 09:04:23;;;;;;;27.30;16.77;;;;;;;;;;772012;180;916088;-63
2021/11/11 09:06:49;;;;;;;23.87;15.50;;;;;;;;;;771789;180;917496;-63
2021/11/11 09:09:15;;;;;;;24.77;15.03;;;;;;;;;;772079;179;945816;-64
2021/11/11 09:11:40;;;;;;;20.87;12.50;;;;;;;;;;772976;180;918667;-64
2021/11/11 09:14:07;;;;;;;25.30;15.30;;;;;;;;;;766596;181;935924;-63
2021/11/11 09:16:32;;;;;;;23.70;15.60;;;;;;;;;;768653;180;915347;-63
2021/11/11 09:18:58;;;;;;;18.40;12.80;;;;;;;;;;769536;180;920550;-64
2021/11/11 09:21:24;;;;;;;22.17;14.03;;;;;;;;;;776451;180;918962;-64
2021/11/11 09:23:50;;;;;;;20.07;12.87;;;;;;;;;;767686;180;1442822;-64
2021/11/11 09:26:16;;;;;;;21.37;13.77;;;;;;;;;;767167;180;918723;-64
2021/11/11 09:28:41;;;;;;;21.07;12.30;;;;;;;;;;776327;180;919219;-65
2021/11/11 09:31:08;;;;;;;26.33;15.50;;;;;;;;;;772083;179;918506;-63
2021/11/11 09:33:33;;;;;;;21.27;13.43;;;;;;;;;;764205;181;940506;-64
2021/11/11 09:35:59;;;;;;;15.70;10.33;;;;;;;;;;775296;180;930209;-64
2021/11/11 09:38:25;;;;;;;20.40;14.20;;;;;;;;;;763413;180;919951;-63
2021/11/11 09:40:51;;;;;;;23.17;14.53;;;;;;;;;;771367;180;919348;-63
2021/11/11 09:43:17;;;;;;;22.97;14.40;;;;;;;;;;768068;179;920541;-63
2021/11/11 09:45:43;;;;;;;27.43;14.20;;;;;;;;;;770045;179;918655;-64
2021/11/11 09:48:08;;;;;;;22.83;14.27;;;;;;;;;;771996;179;861895;-63
2021/11/11 09:50:34;;;;;;;21.43;13.60;;;;;;;;;;769310;181;920140;-63
2021/11/11 09:53:08;;;;;;;22.17;15.30;;;;;;;;;;775130;180;918980;-64
2021/11/11 10:00:41;;;;;;;21.50;14.05;;;;;;;;;;768322;180;1312920;-63
2021/11/11 10:03:06;;;;;;;20.93;13.80;;;;;;;;;;770896;180;916434;-62
2021/11/11 10:05:32;;;;;;;21.20;13.40;;;;;;;;;;772987;180;914960;-62
2021/11/11 10:07:59;;;;;;;22.87;14.87;;;;;;;;;;766837;180;920078;-65
2021/11/11 10:10:27;;;;;;;17.45;11.63;;;;;;;;;;765543;180;919388;-63
2021/11/11 10:12:59;;;;;;;18.47;12.07;;;;;;;;;;774360;180;919183;-63
2021/11/11 10:15:24;;;;;;;22.33;15.13;;;;;;;;;;767168;180;918434;-63
2021/11/11 10:17:50;;;;;;;23.13;13.50;;;;;;;;;;767614;180;919437;-64
2021/11/11 10:20:16;;;;;;;21.83;12.43;;;;;;;;;;768742;180;919207;-63
2021/11/11 10:22:42;;;;;;;17.37;12.17;;;;;;;;;;773630;180;919253;-62
2021/11/11 10:25:12;;;;;;;21.07;12.00;;;;;;;;;;763421;180;919846;-63
2021/11/11 10:27:39;;;;;;;20.23;10.90;;;;;;;;;;764070;180;919273;-63
2021/11/11 10:30:05;;;;;;;23.57;15.67;;;;;;;;;;776400;179;918962;-64
2021/11/11 10:32:38;;;;;;;22.90;13.67;;;;;;;;;;769361;180;918014;-64
2021/11/11 10:35:19;;;;;;;24.57;14.07;;;;;;;;;;773024;179;917387;-62
2021/11/11 10:37:49;;;;;;;21.97;13.87;;;;;;;;;;764540;179;1046469;-64
2021/11/11 10:40:15;;;;;;;20.93;12.60;;;;;;;;;;765143;180;918436;-64
2021/11/11 10:42:41;;;;;;;20.07;9.93;;;;;;;;;;770904;181;918842;-64
2021/11/11 10:45:08;;;;;;;20.33;13.23;;;;;;;;;;765454;181;927308;-63
2021/11/11 10:47:34;;;;;;;22.13;14.00;;;;;;;;;;771745;179;920577;-63
2021/11/11 10:50:00;;;;;;;26.47;15.00;;;;;;;;;;767671;180;1021096;-63
2021/11/11 10:52:27;;;;;;;22.00;13.73;;;;;;;;;;773448;180;919413;-63
2021/11/11 10:54:58;;;;;;;24.47;14.77;;;;;;;;;;768484;180;918828;-64
2021/11/11 10:57:30;;;;;;;15.70;9.77;;;;;;;;;;765204;180;919464;-62
2021/11/11 11:00:01;;;;;;;24.57;14.73;;;;;;;;;;769097;180;1021194;-63
2021/11/11 11:02:30;;;;;;;22.77;15.20;;;;;;;;;;772776;180;918303;-62
2021/11/11 11:04:53;;;;;;;27.63;16.47;;;;;;;;;;773372;179;919016;-64
2021/11/11 11:07:19;;;;;;;20.60;14.90;;;;;;;;;;766756;179;919816;-63
2021/11/11 11:09:45;;;;;;;22.05;14.75;;;;;;;;;;772995;180;1189470;-66
2021/11/11 11:12:16;;;;;;;21.57;13.77;;;;;;;;;;772364;180;930248;-64
2021/11/11 11:14:42;;;;;;;15.43;10.80;;;;;;;;;;767200;180;921308;-63
2021/11/11 11:17:08;;;;;;;22.47;15.10;;;;;;;;;;770643;180;935486;-63
2021/11/11 11:19:34;;;;;;;25.30;16.30;;;;;;;;;;774370;179;912403;-63
2021/11/11 11:22:00;;;;;;;24.17;16.07;;;;;;;;;;764380;181;919133;-63
2021/11/11 11:24:26;;;;;;;21.50;15.90;;;;;;;;;;767295;180;920832;-63
2021/11/11 11:26:52;;;;;;;19.23;11.53;;;;;;;;;;773911;180;917076;-64
2021/11/11 11:29:38;;;;;;;21.70;13.87;;;;;;;;;;765151;179;919650;-63
2021/11/11 11:32:07;;;;;;;27.40;17.57;;;;;;;;;;770259;179;918891;-63
2021/11/11 11:34:32;;;;;;;17.47;13.00;;;;;;;;;;765483;180;916989;-64
2021/11/11 11:36:58;;;;;;;20.33;13.13;;;;;;;;;;766267;181;917421;-64
2021/11/11 11:39:32;;;;;;;25.23;16.67;;;;;;;;;;774136;180;917891;-64
2021/11/11 11:42:05;;;;;;;26.30;14.73;;;;;;;;;;775895;178;919441;-63
2021/11/11 11:44:28;;;;;;;20.10;14.90;;;;;;;;;;768572;180;964155;-64
2021/11/11 11:46:56;;;;;;;26.50;16.55;;;;;;;;;;769125;179;921175;-63
2021/11/11 11:49:21;;;;;;;25.17;15.30;;;;;;;;;;776493;179;918913;-63
2021/11/11 11:51:47;;;;;;;23.00;16.67;;;;;;;;;;767038;180;1020624;-63
2021/11/11 11:54:24;;;;;;;28.53;17.10;;;;;;;;;;768849;179;1021532;-63
2021/11/11 11:56:47;;;;;;;17.70;12.20;;;;;;;;;;775000;180;918952;-63
2021/11/11 11:59:11;;;;;;;24.63;15.80;;;;;;;;;;779861;180;814100;-63
2021/11/11 12:02:48;;;;;;;29.00;16.70;;;;;;;;;;759889;180;919814;-64
2021/11/11 12:04:30;;;;;;;30.37;16.90;;;;;;;;;;761750;180;916204;-64
2021/11/11 12:07:01;;;;;;;21.07;14.60;;;;;;;;;;768318;180;1017643;-64
2021/11/11 12:09:28;;;;;;;23.30;14.95;;;;;;;;;;765106;179;916005;-63
2021/11/11 12:12:10;;;;;;;24.80;16.07;;;;;;;;;;765969;182;916340;-65
2021/11/11 12:14:32;;;;;;;24.17;16.83;;;;;;;;;;760544;180;914247;-65
2021/11/11 12:39:52;;;;;;;27.17;17.83;;;;;;;;;;775043;180;919952;-64
2021/11/11 12:42:17;;;;;;;24.43;15.97;;;;;;;;;;771811;180;919606;-63
2021/11/11 12:44:49;;;;;;;25.60;17.73;;;;;;;;;;764825;180;936226;-65
2021/11/11 12:47:15;;;;;;;27.77;19.60;;;;;;;;;;770090;180;919073;-63
2021/11/11 12:49:41;;;;;;;24.73;18.60;;;;;;;;;;776098;180;919488;-63
2021/11/11 12:52:28;;;;;;;26.63;19.07;;;;;;;;;;769894;180;918728;-63
2021/11/11 12:54:59;;;;;;;30.80;19.17;;;;;;;;;;772164;180;917910;-64
2021/11/11 12:57:26;;;;;;;28.10;18.97;;;;;;;;;;770883;179;881046;-64
2021/11/11 12:59:51;;;;;;;30.47;20.20;;;;;;;;;;768960;180;919496;-63
2021/11/11 13:02:17;;;;;;;32.43;20.90;;;;;;;;;;772492;180;927016;-63
2021/11/11 13:04:46;;;;;;;26.97;18.90;;;;;;;;;;771482;179;920627;-64
2021/11/11 13:07:17;;;;;;;30.93;21.47;;;;;;;;;;763763;181;919020;-63
2021/11/11 13:09:43;;;;;;;27.67;19.10;;;;;;;;;;766516;181;919629;-63
2021/11/11 13:12:09;;;;;;;34.00;20.33;;;;;;;;;;772538;180;917303;-63
2021/11/11 13:14:35;;;;;;;29.37;19.90;;;;;;;;;;771207;179;916808;-64
2021/11/11 13:17:01;;;;;;;35.45;20.75;;;;;;;;;;768597;180;920878;-63
2021/11/11 13:19:30;;;;;;;30.40;19.43;;;;;;;;;;774258;180;914841;-66
2021/11/11 13:21:56;;;;;;;28.20;20.43;;;;;;;;;;769532;179;915961;-63
2021/11/11 13:24:34;;;;;;;27.10;18.67;;;;;;;;;;771138;179;916369;-62
2021/11/11 13:27:23;;;;;;;31.53;21.30;;;;;;;;;;767829;180;919669;-65
2021/11/11 13:58:49;;;;;;;31.47;21.13;;;;;;;;;;771000;179;918432;-63
2021/11/11 14:00:09;;;;;;;33.83;22.97;;;;;;;;;;769290;180;919677;-64
2021/11/11 14:03:53;;;;;;;31.93;22.30;;;;;;;;;;765460;181;918295;-63
2021/11/11 15:15:27;;;;;;;56.37;31.13;;;;;;;;;;776781;179;642041;-63
2021/11/11 15:17:41;;;;;;;58.37;31.73;;;;;;;;;;774718;179;698857;-62
2021/11/11 15:20:30;;;;;;;56.77;33.30;;;;;;;;;;769631;179;1937633;-63
2021/11/11 16:01:42;;;;;;;63.30;35.40;;;;;;;;;;773421;179;636624;-62
2021/11/11 16:26:51;;;;;;;62.87;31.40;;;;;;;;;;780004;180;621054;-63
2021/11/11 16:29:17;;;;;;;58.43;31.20;;;;;;;;;;773213;180;617180;-62
2021/11/11 16:31:45;;;;;;;59.93;33.80;;;;;;;;;;773249;179;635681;-62
2021/11/11 16:34:11;;;;;;;59.00;32.37;;;;;;;;;;778685;180;628070;-61
2021/11/11 16:36:37;;;;;;;59.40;33.10;;;;;;;;;;774493;180;624933;-62
2021/11/11 16:39:03;;;;;;;77.37;35.33;;;;;;;;;;773488;177;628301;-69
2021/11/11 16:41:29;;;;;;;65.07;32.80;;;;;;;;;;775288;180;623362;-63
2021/11/11 16:43:54;;;;;;;68.73;34.93;;;;;;;;;;772715;180;639869;-62
2021/11/11 16:46:20;;;;;;;71.20;37.43;;;;;;;;;;773236;180;620793;-61
2021/11/11 16:48:46;;;;;;;66.20;33.63;;;;;;;;;;770930;180;625074;-65
2021/11/11 16:51:12;;;;;;;68.40;32.90;;;;;;;;;;775397;180;648824;-64
2021/11/11 16:53:39;;;;;;;59.20;33.57;;;;;;;;;;768471;179;629169;-65
2021/11/11 16:56:04;;;;;;;71.07;36.17;;;;;;;;;;770631;180;639770;-62
2021/11/11 16:58:30;;;;;;;58.37;33.37;;;;;;;;;;775692;180;635206;-64
2021/11/11 17:00:56;;;;;;;76.77;36.33;;;;;;;;;;764927;182;647115;-63
2021/11/11 17:03:22;;;;;;;75.17;36.80;;;;;;;;;;760701;183;871997;-62
2021/11/11 17:05:48;;;;;;;64.17;34.40;;;;;;;;;;763712;182;643254;-63
2021/11/11 17:08:15;;;;;;;70.90;35.60;;;;;;;;;;758167;183;620672;-62
2021/11/11 17:10:40;;;;;;;77.50;37.40;;;;;;;;;;763935;182;622654;-62
2021/11/11 17:13:06;;;;;;;68.50;34.13;;;;;;;;;;762708;182;636702;-63
2021/11/11 17:15:34;;;;;;;74.57;37.10;;;;;;;;;;766807;183;637485;-65
2021/11/11 17:17:59;;;;;;;73.40;36.93;;;;;;;;;;768011;179;627603;-64
2021/11/11 17:20:25;;;;;;;73.87;37.80;;;;;;;;;;769665;180;633314;-62
2021/11/11 17:22:56;;;;;;;69.27;36.43;;;;;;;;;;773554;180;638965;-63